Time;durP1;ratioP1;P1;durP2;ratioP2;P2;SDS_P1;SDS_P2;PMS_P1;PMS_P2;Temp;Humidity;BMP_temperature;BMP_pressure;BME280_temperature;BME280_humidity;BME280_pressure;Samples;Min_cycle;Max_cycle;Signal;HPM_P1;HPM_P2
2021/11/07 00:00:29;;;;;;;1999.90;999.90;;;;;;;11.41;100.00;100296.81;5092315;28;20044;-34
2021/11/07 00:03:16;;;;;;;1999.90;999.90;;;;;;;11.44;100.00;100290.19;5092020;28;20020;-34
2021/11/07 00:05:47;;;;;;;1999.90;999.90;;;;;;;11.42;100.00;100286.94;5092079;28;20024;-33
2021/11/07 00:10:58;;;;;;;1999.90;999.90;;;;;;;11.53;100.00;100283.44;5091949;28;20024;-33
2021/11/07 00:13:25;;;;;;;1999.90;999.90;;;;;;;11.49;100.00;100290.28;5091860;28;20028;-33
2021/11/07 00:15:54;;;;;;;1999.90;999.90;;;;;;;11.54;100.00;100285.88;5092224;28;20039;-33
2021/11/07 00:18:23;;;;;;;1999.90;999.90;;;;;;;11.52;100.00;100279.13;5092186;28;20416;-33
2021/11/07 00:20:53;;;;;;;1999.90;999.90;;;;;;;11.61;100.00;100272.38;5091771;28;20063;-34
2021/11/07 00:25:57;;;;;;;1999.90;999.90;;;;;;;11.70;100.00;100272.81;5091856;28;20112;-34
2021/11/07 00:28:35;;;;;;;1999.90;999.90;;;;;;;11.69;100.00;100264.00;5092118;28;20028;-33
2021/11/07 00:31:17;;;;;;;1999.90;999.90;;;;;;;11.72;100.00;100268.06;5091740;28;20107;-34
2021/11/07 00:41:44;;;;;;;1999.90;999.90;;;;;;;11.73;100.00;100261.66;5091704;28;20031;-33
2021/11/07 00:44:16;;;;;;;1999.90;999.90;;;;;;;11.83;100.00;100266.38;5091988;28;20077;-34
2021/11/07 00:46:46;;;;;;;1999.90;999.90;;;;;;;11.83;100.00;100266.38;5091638;28;20081;-34
2021/11/07 00:49:19;;;;;;;1999.90;999.90;;;;;;;11.77;100.00;100267.34;5091552;28;20472;-33
2021/11/07 00:57:14;;;;;;;1999.90;999.90;;;;;;;11.77;100.00;100256.66;5095485;28;20032;-34
2021/11/07 00:59:50;;;;;;;1999.90;999.90;;;;;;;11.80;100.00;100253.50;5095647;28;20103;-33
2021/11/07 01:02:31;;;;;;;1999.90;999.90;;;;;;;11.80;100.00;100242.84;5095319;28;20034;-33
2021/11/07 01:04:59;;;;;;;1999.90;999.90;;;;;;;11.84;100.00;100239.44;5095255;28;20089;-33
2021/11/07 01:07:25;;;;;;;1999.90;999.90;;;;;;;11.80;100.00;100245.50;5095164;28;20110;-33
2021/11/07 01:09:53;;;;;;;1999.90;999.90;;;;;;;11.81;100.00;100237.25;5095043;28;20099;-34
2021/11/07 01:12:21;;;;;;;1999.90;999.90;;;;;;;11.87;100.00;100228.28;5095101;28;20032;-33
2021/11/07 01:14:49;;;;;;;1999.90;999.90;;;;;;;11.95;100.00;100239.66;5094905;28;20505;-33
2021/11/07 01:17:15;;;;;;;1999.90;999.90;;;;;;;12.02;100.00;100235.00;5095008;28;20484;-34
2021/11/07 01:19:42;;;;;;;1999.90;999.90;;;;;;;12.04;100.00;100224.88;5094980;28;20020;-34
2021/11/07 01:22:11;;;;;;;1999.90;999.90;;;;;;;12.04;100.00;100225.69;5094768;28;20054;-34
2021/11/07 01:24:40;;;;;;;1999.90;999.90;;;;;;;12.03;100.00;100234.75;5093657;28;20099;-34
2021/11/07 01:27:22;;;;;;;1999.90;999.90;;;;;;;11.87;100.00;100244.31;5095573;28;20032;-33
2021/11/07 01:29:52;;;;;;;1999.90;999.90;;;;;;;11.89;100.00;100228.88;5095223;28;20085;-34
2021/11/07 01:32:20;;;;;;;1999.90;999.90;;;;;;;11.96;100.00;100233.28;5094567;28;20119;-34
2021/11/07 01:37:54;;;;;;;1999.90;999.90;;;;;;;11.95;100.00;100232.47;5090261;28;20495;-34
2021/11/07 01:40:25;;;;;;;1999.90;999.90;;;;;;;12.00;100.00;100231.75;5095325;28;20024;-34
2021/11/07 01:42:58;;;;;;;1999.90;999.90;;;;;;;11.99;100.00;100230.13;5094483;28;20051;-33
2021/11/07 01:45:37;;;;;;;1999.90;999.90;;;;;;;11.98;100.00;100231.16;5094527;28;20046;-33
2021/11/07 01:48:09;;;;;;;1999.90;999.90;;;;;;;12.02;100.00;100227.78;5094481;28;20074;-34
2021/11/07 01:50:40;;;;;;;1999.90;999.90;;;;;;;11.99;100.00;100224.78;5094350;28;20028;-34
2021/11/07 01:53:33;;;;;;;1999.90;999.90;;;;;;;12.02;100.00;100225.09;5094112;28;20044;-34
2021/11/07 01:55:58;;;;;;;1999.90;999.90;;;;;;;11.96;100.00;100226.06;5093997;28;20123;-34
2021/11/07 01:58:26;;;;;;;1999.90;999.90;;;;;;;12.08;100.00;100226.00;5094491;28;20491;-33
2021/11/07 02:00:54;;;;;;;1999.90;999.90;;;;;;;12.09;100.00;100230.31;5094083;28;20031;-34
2021/11/07 02:03:20;;;;;;;1999.90;999.90;;;;;;;12.05;100.00;100223.81;5093953;28;20028;-34
2021/11/07 02:05:46;;;;;;;1999.90;999.90;;;;;;;11.99;100.00;100222.91;5094072;28;20055;-34
2021/11/07 02:08:12;;;;;;;1999.90;999.90;;;;;;;12.00;100.00;100224.53;5094325;28;20043;-34
2021/11/07 02:10:39;;;;;;;1999.90;999.90;;;;;;;11.98;100.00;100228.50;5093900;28;20475;-34
2021/11/07 02:13:06;;;;;;;1999.90;999.90;;;;;;;11.97;100.00;100221.56;5093922;28;20048;-33
2021/11/07 02:15:32;;;;;;;1999.90;999.90;;;;;;;12.00;100.00;100221.88;5094114;28;20070;-33
2021/11/07 02:17:58;;;;;;;1999.90;999.90;;;;;;;12.06;100.00;100222.78;5093883;28;20032;-34
2021/11/07 02:20:30;;;;;;;1999.90;999.90;;;;;;;12.10;100.00;100228.44;5093772;28;20028;-34
2021/11/07 02:22:59;;;;;;;1999.90;999.90;;;;;;;12.10;100.00;100226.59;5094384;28;20020;-34
2021/11/07 02:25:25;;;;;;;1999.90;999.90;;;;;;;11.89;100.00;100228.88;5094021;28;20466;-34
2021/11/07 02:27:51;;;;;;;1999.90;999.90;;;;;;;11.94;100.00;100225.50;5093653;28;20093;-34
2021/11/07 02:30:17;;;;;;;1999.90;999.90;;;;;;;11.97;100.00;100219.69;5093575;28;20024;-34
2021/11/07 02:32:45;;;;;;;1999.90;999.90;;;;;;;12.08;100.00;100218.00;5093436;28;20452;-34
2021/11/07 02:35:12;;;;;;;1999.90;999.90;;;;;;;12.10;100.00;100212.41;5093730;28;20036;-34
2021/11/07 02:37:39;;;;;;;1999.90;999.90;;;;;;;12.13;100.00;100225.28;5093432;28;20553;-34
2021/11/07 02:40:07;;;;;;;1999.90;999.90;;;;;;;12.18;100.00;100230.72;5093372;28;20530;-34
2021/11/07 02:42:35;;;;;;;1999.90;999.90;;;;;;;12.10;100.00;100233.78;5093264;28;20032;-34
2021/11/07 02:45:02;;;;;;;1999.90;999.90;;;;;;;12.05;100.00;100223.81;5093251;28;20024;-34
2021/11/07 02:47:28;;;;;;;1999.90;999.90;;;;;;;12.15;100.00;100229.34;5094156;28;20037;-34
2021/11/07 02:49:54;;;;;;;1999.90;999.90;;;;;;;11.98;100.00;100223.16;5093577;28;20023;-34
2021/11/07 02:52:20;;;;;;;1999.90;999.90;;;;;;;11.96;100.00;100226.06;5092779;28;20031;-34
2021/11/07 02:54:46;;;;;;;1999.90;999.90;;;;;;;11.98;100.00;100231.16;5093119;28;20116;-34
2021/11/07 02:57:16;;;;;;;1999.90;999.90;;;;;;;11.96;100.00;100228.75;5093354;28;20129;-33
2021/11/07 02:59:43;;;;;;;1999.90;999.90;;;;;;;12.01;100.00;100234.19;5093333;28;20048;-34
2021/11/07 03:02:12;;;;;;;1999.90;999.90;;;;;;;12.00;100.00;100231.75;5092922;28;20149;-33
2021/11/07 03:04:38;;;;;;;1999.90;999.90;;;;;;;11.91;100.00;100231.31;5093165;28;20024;-33
2021/11/07 03:07:06;;;;;;;1999.90;999.90;;;;;;;11.97;100.00;100229.56;5092870;28;20479;-34
2021/11/07 03:09:35;;;;;;;1999.90;999.90;;;;;;;11.95;100.00;100227.13;5093110;28;20039;-34
2021/11/07 03:12:02;;;;;;;1999.90;999.90;;;;;;;12.01;100.00;100236.84;5093031;28;20024;-33
2021/11/07 03:14:32;;;;;;;1999.90;999.90;;;;;;;12.04;100.00;100238.25;5092389;28;20080;-33
2021/11/07 03:16:59;;;;;;;1999.90;999.90;;;;;;;12.04;100.00;100244.38;5092565;28;20060;-34
2021/11/07 03:19:27;;;;;;;1999.90;999.90;;;;;;;11.91;100.00;100244.66;5092752;28;20049;-33
2021/11/07 03:21:56;;;;;;;1999.90;999.90;;;;;;;11.90;100.00;100233.13;5092840;28;20130;-34
2021/11/07 03:24:23;;;;;;;1999.90;999.90;;;;;;;11.96;100.00;100233.28;5092880;28;20028;-34
2021/11/07 03:26:49;;;;;;;1999.90;999.90;;;;;;;11.96;100.00;100230.59;5092522;28;20028;-33
2021/11/07 03:29:16;;;;;;;1999.90;999.90;;;;;;;12.01;100.00;100231.50;5092806;28;20051;-34
2021/11/07 03:32:08;;;;;;;1999.90;999.90;;;;;;;11.84;100.00;100234.09;5092738;28;20049;-34
2021/11/07 03:34:42;;;;;;;1999.90;999.90;;;;;;;11.87;100.00;100238.16;5092403;28;20534;-34
2021/11/07 03:37:09;;;;;;;1999.90;999.90;;;;;;;11.79;100.00;100231.34;5092370;28;20057;-34
2021/11/07 03:39:36;;;;;;;1999.90;999.90;;;;;;;11.84;100.00;100223.41;5092657;28;20027;-34
2021/11/07 03:42:07;;;;;;;1999.90;999.90;;;;;;;11.94;100.00;100232.72;5092591;28;20043;-34
2021/11/07 03:44:33;;;;;;;1999.90;999.90;;;;;;;11.93;100.00;100221.22;5092597;28;20020;-34
2021/11/07 03:47:01;;;;;;;1999.90;999.90;;;;;;;11.97;100.00;100227.69;5092275;28;20507;-34
2021/11/07 03:49:27;;;;;;;1999.90;999.90;;;;;;;11.89;100.00;100223.53;5092122;28;20028;-34
2021/11/07 03:51:53;;;;;;;1999.90;999.90;;;;;;;11.91;100.00;100220.63;5092135;28;20095;-34
2021/11/07 03:54:20;;;;;;;1999.90;999.90;;;;;;;11.92;100.00;100222.22;5091881;28;20051;-34
2021/11/07 03:56:45;;;;;;;1999.90;999.90;;;;;;;11.90;100.00;100217.13;5092375;28;20043;-34
2021/11/07 03:59:11;;;;;;;1999.90;999.90;;;;;;;11.90;100.00;100227.00;5092097;28;20472;-34
2021/11/07 04:01:37;;;;;;;1999.90;999.90;;;;;;;11.90;100.00;100219.00;5091990;28;20063;-34
2021/11/07 04:04:05;;;;;;;1999.90;999.90;;;;;;;11.95;100.00;100219.13;5091994;28;20024;-34
2021/11/07 04:06:31;;;;;;;1999.90;999.90;;;;;;;11.90;100.00;100217.13;5092315;28;20062;-34
2021/11/07 04:08:57;;;;;;;1999.90;999.90;;;;;;;11.98;100.00;100228.50;5092235;28;20072;-33
2021/11/07 04:11:23;;;;;;;1999.90;999.90;;;;;;;11.98;100.00;100225.81;5091913;28;20448;-33
2021/11/07 04:13:49;;;;;;;1999.90;999.90;;;;;;;11.96;100.00;100230.59;5092024;28;20039;-33
2021/11/07 04:16:15;;;;;;;1999.90;999.90;;;;;;;11.87;100.00;100225.63;5091861;28;20024;-34
2021/11/07 04:18:43;;;;;;;1999.90;999.90;;;;;;;11.89;100.00;100230.72;5092533;28;20035;-33
2021/11/07 04:21:09;;;;;;;1999.90;999.90;;;;;;;11.88;100.00;100224.56;5092176;28;20024;-34
2021/11/07 04:23:36;;;;;;;1999.90;999.90;;;;;;;11.91;100.00;100220.63;5092076;28;20024;-33
2021/11/07 04:26:02;;;;;;;1999.90;999.90;;;;;;;11.96;100.00;100225.25;5092516;28;20062;-33
2021/11/07 04:28:28;;;;;;;;;;;;;;;11.95;100.00;100219.13;5096368;28;20067;-34
2021/11/07 04:30:54;;;;;;;1999.90;999.90;;;;;;;11.90;100.00;100219.00;5096221;28;19954;-34
2021/11/07 04:33:21;;;;;;;1999.90;999.90;;;;;;;11.90;100.00;100213.66;5096007;28;20028;-34
2021/11/07 04:35:47;;;;;;;1999.90;999.90;;;;;;;11.89;100.00;100217.34;5095771;28;20032;-34
2021/11/07 04:38:13;;;;;;;1999.90;999.90;;;;;;;11.95;100.00;100208.44;5095962;28;20031;-34
2021/11/07 04:40:39;;;;;;;1999.90;999.90;;;;;;;12.00;100.00;100213.06;5096003;28;20030;-34
2021/11/07 04:43:05;;;;;;;1999.90;999.90;;;;;;;12.01;100.00;100215.50;5095799;28;20472;-34
2021/11/07 04:45:31;;;;;;;1999.90;999.90;;;;;;;12.07;100.00;100208.38;5095968;28;20515;-33
2021/11/07 04:47:57;;;;;;;1999.90;999.90;;;;;;;12.03;100.00;100209.91;5095557;28;20060;-34
2021/11/07 04:50:22;;;;;;;1999.90;999.90;;;;;;;12.04;100.00;100211.53;5095532;28;20032;-33
2021/11/07 04:52:49;;;;;;;1999.90;999.90;;;;;;;12.14;100.00;100216.22;5093912;28;20051;-34
2021/11/07 04:55:15;;;;;;;1999.90;999.90;;;;;;;12.22;100.00;100210.50;5095991;28;20143;-34
2021/11/07 04:57:42;;;;;;;1999.90;999.90;;;;;;;12.17;100.00;100221.06;5095430;28;20034;-34
2021/11/07 05:00:10;;;;;;;1999.90;999.90;;;;;;;12.20;100.00;100212.56;5095622;28;20031;-34
2021/11/07 05:02:37;;;;;;;1999.90;999.90;;;;;;;12.25;100.00;100215.34;5095513;28;20465;-34
2021/11/07 05:05:04;;;;;;;1999.90;999.90;;;;;;;12.29;100.00;100211.16;5095547;28;20107;-34
2021/11/07 05:07:30;;;;;;;1999.90;999.90;;;;;;;12.32;100.00;100213.34;5095463;28;20399;-34
2021/11/07 05:09:56;;;;;;;1999.90;999.90;;;;;;;12.23;100.00;100214.75;5095227;28;20032;-33
2021/11/07 05:12:21;;;;;;;1999.90;999.90;;;;;;;12.22;100.00;100223.84;5095388;28;20524;-33
2021/11/07 05:14:47;;;;;;;1999.90;999.90;;;;;;;12.10;100.00;100210.56;5095008;28;20403;-33
2021/11/07 05:17:13;;;;;;;1999.90;999.90;;;;;;;12.22;100.00;100211.28;5095155;28;20032;-33
2021/11/07 05:19:39;;;;;;;1999.90;999.90;;;;;;;12.29;100.00;100211.16;5094962;28;20020;-34
2021/11/07 05:22:06;;;;;;;1999.90;999.90;;;;;;;12.21;100.00;100214.22;5095023;28;20036;-34
2021/11/07 05:24:32;;;;;;;1999.90;999.90;;;;;;;12.18;100.00;100218.16;5094818;28;20503;-33
2021/11/07 05:26:58;;;;;;;1999.90;999.90;;;;;;;12.28;100.00;100217.53;5094802;28;20031;-34
2021/11/07 05:29:24;;;;;;;1999.90;999.90;;;;;;;12.27;100.00;100215.91;5095144;28;20028;-33
2021/11/07 05:31:49;;;;;;;1999.90;999.90;;;;;;;12.27;100.00;100225.78;5094769;28;20529;-33
2021/11/07 05:34:15;;;;;;;1999.90;999.90;;;;;;;12.28;100.00;100227.41;5094586;28;20032;-34
2021/11/07 05:36:44;;;;;;;1999.90;999.90;;;;;;;12.25;100.00;100212.69;5094991;28;20031;-34
2021/11/07 05:39:12;;;;;;;1999.90;999.90;;;;;;;12.31;100.00;100209.03;5093716;28;20035;-34
2021/11/07 05:41:38;;;;;;;1999.90;999.90;;;;;;;12.34;100.00;100211.22;5094464;28;20102;-33
2021/11/07 05:44:04;;;;;;;;;;;;;;;12.33;100.00;100212.28;5095137;28;20032;-34
2021/11/07 05:46:30;;;;;;;1999.90;999.90;;;;;;;12.32;100.00;100208.00;5094745;28;19916;-34
2021/11/07 05:48:56;;;;;;;1999.90;999.90;;;;;;;12.36;100.00;100203.78;5094404;28;20040;-34
2021/11/07 05:51:22;;;;;;;1999.90;999.90;;;;;;;12.39;100.00;100208.63;5093143;28;20032;-33
2021/11/07 05:53:48;;;;;;;1999.90;999.90;;;;;;;12.38;100.00;100203.53;5093959;28;20056;-34
2021/11/07 05:56:13;;;;;;;1999.90;999.90;;;;;;;12.42;100.00;100197.47;5094325;28;20039;-33
2021/11/07 05:58:39;;;;;;;1999.90;999.90;;;;;;;12.47;100.00;100198.59;5094255;28;20157;-34
2021/11/07 06:01:05;;;;;;;1999.90;999.90;;;;;;;12.47;100.00;100206.63;5094189;28;20480;-33
2021/11/07 06:03:31;;;;;;;1999.90;999.90;;;;;;;12.38;100.00;100212.34;5094148;28;20054;-33
2021/11/07 06:05:57;;;;;;;1999.90;999.90;;;;;;;12.46;100.00;100207.66;5094107;28;20495;-33
2021/11/07 06:08:23;;;;;;;1999.90;999.90;;;;;;;12.51;100.00;100200.53;5094332;28;20066;-33
2021/11/07 06:10:48;;;;;;;1999.90;999.90;;;;;;;12.51;100.00;100205.88;5094319;28;20431;-33
2021/11/07 06:13:14;;;;;;;1999.90;999.90;;;;;;;12.54;100.00;100209.94;5093929;28;20498;-33
2021/11/07 06:15:40;;;;;;;1999.90;999.90;;;;;;;12.54;100.00;100216.09;5093823;28;20510;-33
2021/11/07 06:18:06;;;;;;;1999.90;999.90;;;;;;;12.55;100.00;100216.88;5093827;28;20099;-34
2021/11/07 06:20:32;;;;;;;1999.90;999.90;;;;;;;12.60;100.00;100212.44;5094117;28;20077;-34
2021/11/07 06:23:00;;;;;;;1999.90;999.90;;;;;;;12.62;100.00;100208.69;5093747;28;20491;-34
2021/11/07 06:25:26;;;;;;;1999.90;999.90;;;;;;;12.66;100.00;100201.81;5093678;28;20036;-34
2021/11/07 06:27:52;;;;;;;1999.90;999.90;;;;;;;12.65;100.00;100195.63;5093832;28;20024;-33
2021/11/07 06:30:18;;;;;;;;;;;;;;;12.66;100.00;100196.47;5094364;28;20396;-34
2021/11/07 06:32:44;;;;;;;1999.90;999.90;;;;;;;12.70;100.00;100190.38;5093798;28;20000;-34
2021/11/07 06:35:12;;;;;;;1999.90;999.90;;;;;;;12.76;100.00;100188.59;5093425;28;20573;-34
2021/11/07 06:37:38;;;;;;;1999.90;999.90;;;;;;;12.74;100.00;100196.88;5093583;28;20081;-34
2021/11/07 06:40:04;;;;;;;1999.90;999.90;;;;;;;12.80;100.00;100194.25;5093449;28;20032;-34
2021/11/07 06:42:30;;;;;;;1999.90;999.90;;;;;;;12.77;100.00;100203.56;5093316;28;20070;-33
2021/11/07 06:44:55;;;;;;;1999.90;999.90;;;;;;;12.80;100.00;100203.06;5093369;28;20056;-34
2021/11/07 06:47:21;;;;;;;1999.90;999.90;;;;;;;12.78;100.00;100199.84;5093313;28;20035;-34
2021/11/07 06:49:47;;;;;;;1999.90;999.90;;;;;;;12.83;100.00;100196.44;5093207;28;20047;-34
2021/11/07 06:52:13;;;;;;;;;;;;;;;12.88;100.00;100183.94;5093691;28;20028;-34
2021/11/07 06:54:39;;;;;;;1999.90;999.90;;;;;;;12.88;100.00;100181.25;5093017;28;19912;-34
2021/11/07 06:57:05;;;;;;;1999.90;999.90;;;;;;;12.86;100.00;100186.06;5093244;28;20036;-34
2021/11/07 06:59:31;;;;;;;1999.90;999.90;;;;;;;12.90;100.00;100178.34;5093578;28;20037;-33
2021/11/07 07:01:58;;;;;;;1999.90;999.90;;;;;;;12.93;100.00;100185.88;5093010;28;20488;-33
2021/11/07 07:04:23;;;;;;;;;;;;;;;12.93;100.00;100175.16;5093339;28;20016;-33
2021/11/07 07:06:49;;;;;;;1999.90;999.90;;;;;;;12.96;100.00;100172.00;5093008;28;19919;-34
2021/11/07 07:09:20;;;;;;;1999.90;999.90;;;;;;;12.92;100.00;100179.72;5092833;28;20028;-34
2021/11/07 07:11:49;;;;;;;1999.90;999.90;;;;;;;12.97;100.00;100178.16;5093339;28;20036;-33
2021/11/07 07:14:27;;;;;;;1999.90;999.90;;;;;;;13.00;100.00;100175.78;5092589;28;20031;-34
2021/11/07 07:22:19;;;;;;;1999.90;999.90;;;;;;;13.20;100.00;100183.28;5092730;28;20082;-34
2021/11/07 07:27:53;;;;;;;1999.90;999.90;;;;;;;13.32;100.00;100183.16;5092750;28;20058;-34
2021/11/07 07:32:47;;;;;;;1999.90;999.90;;;;;;;13.39;100.00;100180.28;5092616;28;20115;-33
2021/11/07 07:35:13;;;;;;;1999.90;999.90;;;;;;;13.44;100.00;100181.16;5092339;28;20070;-34
2021/11/07 07:37:40;;;;;;;1999.90;999.90;;;;;;;13.42;100.00;100183.28;5092359;28;20024;-34
2021/11/07 07:40:06;;;;;;;;;;;;;;;13.48;100.00;100170.78;5093133;28;20020;-34
2021/11/07 07:42:32;;;;;;;1999.90;999.90;;;;;;;13.46;100.00;100171.03;5091097;28;19912;-34
2021/11/07 07:45:00;;;;;;;;;;;;;;;13.47;100.00;100166.47;5092715;28;20062;-34
2021/11/07 07:47:26;;;;;;;1999.90;999.90;;;;;;;13.50;100.00;100168.66;5092258;28;20295;-34
2021/11/07 07:49:52;;;;;;;1999.90;999.90;;;;;;;13.54;100.00;100167.09;5092266;28;20031;-34
2021/11/07 07:52:21;;;;;;;1999.90;999.90;;;;;;;13.58;100.00;100162.03;5091852;28;20061;-34
2021/11/07 07:54:48;;;;;;;1999.90;999.90;;;;;;;13.58;100.00;100162.03;5092032;28;20032;-34
2021/11/07 07:57:13;;;;;;;;;;;;;;;13.60;100.00;100147.34;5092896;28;20028;-34
2021/11/07 07:59:39;;;;;;;1999.90;999.90;;;;;;;13.51;100.00;100145.34;5092071;28;20296;-33
2021/11/07 08:02:04;;;;;;;1999.90;999.90;;;;;;;13.48;100.00;100136.78;5090497;28;20164;-33
2021/11/07 08:04:30;;;;;;;1999.90;999.90;;;;;;;13.51;100.00;100138.16;5092021;28;20028;-34
2021/11/07 08:06:56;;;;;;;1999.90;999.90;;;;;;;13.61;100.00;100146.28;5092104;28;20512;-34
2021/11/07 08:09:22;;;;;;;1999.90;999.90;;;;;;;13.57;100.00;100149.72;5092011;28;20031;-34
2021/11/07 08:11:48;;;;;;;1999.90;999.90;;;;;;;13.61;100.00;100148.13;5092735;28;20020;-34
2021/11/07 08:14:13;;;;;;;1999.90;999.90;;;;;;;13.64;100.00;100145.78;5091927;28;20028;-34
2021/11/07 08:16:39;;;;;;;1999.90;999.90;;;;;;;13.61;100.00;100140.94;5092226;28;20032;-34
2021/11/07 08:19:06;;;;;;;1999.90;999.90;;;;;;;13.67;100.00;100135.59;5092215;28;20132;-34
2021/11/07 08:21:37;;;;;;;;;;;;;;;13.73;100.00;100132.72;5092343;28;20032;-34
2021/11/07 08:24:04;;;;;;;;;;;;;;;13.76;100.00;100137.56;5092582;28;19999;-34
2021/11/07 08:26:32;;;;;;;;;;;;;;;13.75;100.00;100127.91;5092308;28;19919;-34
2021/11/07 08:28:58;;;;;;;;;;;;;;;13.72;100.00;100133.00;5092626;28;20003;-34
2021/11/07 08:31:26;;;;;;;;;;;;;;;13.70;100.00;100127.06;5092208;28;20371;-34
2021/11/07 08:33:52;;;;;;;;;;;;;;;13.62;100.00;100133.69;5092064;28;20368;-34
2021/11/07 08:36:24;;;;;;;;;;;;;;;13.62;100.00;100128.34;5092248;28;19919;-33
2021/11/07 08:38:59;;;;;;;;;;;;;;;13.51;100.00;100129.28;5092868;28;19934;-34
2021/11/07 08:41:26;;;;;;;;;;;;;;;13.59;100.00;100123.47;5092461;28;19916;-34
2021/11/07 09:08:16;;;;;;;;;;;;;;;14.09;100.00;100092.81;5087048;28;19916;-34
2021/11/07 09:10:43;;;;;;;;;;;;;;;14.00;100.00;100089.00;5091910;28;19915;-34
2021/11/07 09:13:10;;;;;;;;;;;;;;;13.99;100.00;100085.53;5092979;28;19994;-34
2021/11/07 09:15:37;;;;;;;;;;;;;;;14.02;100.00;100083.38;5095731;28;19951;-34
2021/11/07 09:18:04;;;;;;;;;;;;;;;13.99;100.00;100088.22;5095579;28;19969;-34
2021/11/07 09:20:50;;;;;;;;;;;;;;;13.96;100.00;100079.88;5095752;28;20367;-34
2021/11/07 09:28:28;;;;;;;;;;;;;;;14.06;100.00;100066.53;5095391;28;19912;-34
2021/11/07 09:31:14;;;;;;;;;;;;;;;14.13;100.00;100064.44;5095332;28;19920;-34
2021/11/07 09:38:48;;;;;;;;;;;;;;;14.10;100.00;100062.28;5095804;28;20025;-34
2021/11/07 09:41:34;;;;;;;;;;;;;;;14.11;100.00;100055.88;5095397;28;20375;-34
2021/11/07 09:44:12;;;;;;;;;;;;;;;14.10;100.00;100048.88;5095774;28;20061;-34
2021/11/07 09:49:24;;;;;;;;;;;;;;;14.09;100.00;100030.38;5094950;28;19911;-33
2021/11/07 09:52:00;;;;;;;;;;;;;;;14.10;100.00;100023.97;5094879;28;19960;-33
2021/11/07 09:54:28;;;;;;;;;;;;;;;13.95;100.00;100016.66;5094482;28;19959;-33
2021/11/07 09:56:55;;;;;;;;;;;;;;;14.01;100.00;100007.56;5095058;28;19912;-34
2021/11/07 09:59:23;;;;;;;;;;;;;;;14.11;100.00;100002.28;5094699;28;20406;-34
2021/11/07 10:01:51;;;;;;;;;;;;;;;14.18;100.00;100007.38;5094983;28;19935;-34
2021/11/07 10:04:20;;;;;;;;;;;;;;;14.27;100.00;100010.38;5094857;28;19919;-34
2021/11/07 10:06:56;;;;;;;;;;;;;;;14.26;100.00;100009.59;5094840;28;19940;-33
2021/11/07 10:09:35;;;;;;;;;;;;;;;14.27;100.00;100002.34;5094605;28;19920;-34
2021/11/07 10:12:06;;;;;;;;;;;;;;;14.26;100.00;100006.09;5094734;28;20372;-34
2021/11/07 10:14:39;;;;;;;;;;;;;;;14.23;100.00;100009.31;5094276;28;20395;-34
2021/11/07 10:17:20;;;;;;;;;;;;;;;14.28;100.00;100012.00;5094351;28;20395;-34
2021/11/07 10:19:55;;;;;;;;;;;;;;;14.15;100.00;100005.22;5094269;28;19908;-34
2021/11/07 10:22:21;;;;;;;;;;;;;;;14.21;100.00;100000.69;5094280;28;20002;-33
2021/11/07 10:24:54;;;;;;;;;;;;;;;14.20;100.00;99978.47;5093767;28;20302;-34
2021/11/07 10:27:19;;;;;;;;;;;;;;;14.20;100.00;99962.38;5094179;28;19969;-34
2021/11/07 10:29:48;;;;;;;;;;;;;;;14.35;100.00;99975.03;5094084;28;19908;-34
2021/11/07 10:32:24;;;;;;;;;;;;;;;14.49;100.00;99973.50;5094355;28;19922;-34
2021/11/07 10:35:05;;;;;;;;;;;;;;;14.43;100.00;99960.31;5093898;28;20371;-34
2021/11/07 10:43:02;;;;;;;;;;;;;;;14.23;100.00;99937.72;5093966;28;19916;-34
2021/11/07 10:46:19;;;;;;;;;;;;;;;14.26;100.00;99944.47;5093728;28;19938;-34
2021/11/07 10:53:57;;;;;;;;;;;;;;;14.16;100.00;99940.66;5093597;28;19923;-33
2021/11/07 10:56:23;;;;;;;;;;;;;;;14.15;100.00;99938.22;5093529;28;19911;-33
2021/11/07 10:58:50;;;;;;;;;;;;;;;14.29;100.00;99930.53;5093838;28;19927;-34
2021/11/07 11:01:26;;;;;;;;;;;;;;;14.25;100.00;99930.22;5093798;28;19912;-34
2021/11/07 11:03:58;;;;;;;;;;;;;;;14.35;100.00;99929.47;5093435;28;19919;-34
2021/11/07 11:06:24;;;;;;;;;;;;;;;14.34;100.00;99927.84;5093655;28;19912;-34
2021/11/07 11:08:59;;;;;;;;;;;;;;;14.57;100.00;99923.09;5094007;28;19919;-34
2021/11/07 11:11:47;;;;;;;;;;;;;;;14.49;100.00;99914.50;5093361;28;19995;-33
2021/11/07 11:14:34;;;;;;;;;;;;;;;14.44;100.00;99911.78;5093526;28;20383;-34
2021/11/07 11:17:09;;;;;;;;;;;;;;;14.40;100.00;99904.53;5093152;28;19926;-34
2021/11/07 11:22:34;;;;;;;;;;;;;;;14.32;100.00;99905.88;5093486;28;19915;-33
2021/11/07 11:30:44;;;;;;;;;;;;;;;14.28;100.00;99899.41;5093652;28;20018;-34
2021/11/07 11:38:17;;;;;;;;;;;;;;;14.26;100.00;99899.69;5093173;28;19951;-34
2021/11/07 11:40:55;;;;;;;;;;;;;;;14.18;100.00;99894.81;5093155;28;19926;-34
2021/11/07 11:46:08;;;;;;;;;;;;;;;14.11;100.00;99868.28;5092811;28;19914;-34
2021/11/07 11:51:43;;;;;;;;;;;;;;;14.15;100.00;99864.00;5093337;28;19915;-34
2021/11/07 12:00:16;;;;;;;;;;;;;;;14.03;100.00;99860.75;5092635;28;19916;-34
2021/11/07 12:02:56;;;;;;;;;;;;;;;14.03;100.00;99860.75;5092869;28;19935;-34
2021/11/07 12:05:35;;;;;;;;;;;;;;;14.13;100.00;99850.06;5092474;28;19912;-33
2021/11/07 12:08:07;;;;;;;;;;;;;;;14.10;100.00;99839.88;5092783;28;19912;-34
2021/11/07 12:10:38;;;;;;;;;;;;;;;14.02;100.00;99831.53;5092406;28;19912;-34
2021/11/07 12:13:26;;;;;;;;;;;;;;;14.01;100.00;99825.38;5092742;28;20295;-33
2021/11/07 12:15:54;;;;;;;;;;;;;;;14.14;100.00;99816.03;5092257;28;19969;-33
2021/11/07 12:18:19;;;;;;;;;;;;;;;14.05;100.00;99804.22;5092713;28;19912;-33
2021/11/07 12:20:52;;;;;;;;;;;;;;;14.01;100.00;99803.94;5092355;28;20436;-34
2021/11/07 12:23:33;;;;;;;;;;;;;;;14.08;100.00;99798.31;5092647;28;19976;-34
2021/11/07 12:26:20;;;;;;;;;;;;;;;14.14;100.00;99797.28;5092561;28;19915;-34
2021/11/07 12:28:48;;;;;;;;;;;;;;;14.08;100.00;99783.06;5092175;28;19919;-34
2021/11/07 12:31:14;;;;;;;;;;;;;;;14.07;100.00;99780.66;5092612;28;19973;-34
2021/11/07 12:33:47;;;;;;;;;;;;;;;14.13;100.00;99772.34;5092492;28;19916;-34
2021/11/07 12:36:30;;;;;;;;;;;;;;;14.12;100.00;99777.97;5092447;28;19911;-34
2021/11/07 12:41:40;;;;;;;;;;;;;;;14.17;100.00;99799.44;5092828;28;19919;-34
2021/11/07 12:44:06;;;;;;;;;;;;;;;14.20;100.00;99795.41;5092173;28;20326;-34
2021/11/07 12:49:04;;;;;;;;;;;;;;;14.03;100.00;99791.06;5096007;28;19969;-33
2021/11/07 12:51:34;;;;;;;;;;;;;;;13.92;100.00;99792.94;5096557;28;19912;-34
2021/11/07 12:54:02;;;;;;;;;;;;;;;13.82;100.00;99796.38;5095658;28;19916;-34
2021/11/07 12:56:39;;;;;;;;;;;;;;;13.81;100.00;99792.06;5096115;28;19916;-34
2021/11/07 12:59:07;;;;;;;;;;;;;;;13.80;100.00;99793.16;5095884;28;19916;-33
2021/11/07 13:01:50;;;;;;;;;;;;;;;13.89;100.00;99788.09;5096895;28;20008;-34
2021/11/07 13:04:16;;;;;;;;;;;;;;;13.91;100.00;99791.31;5095742;28;19919;-33
2021/11/07 13:06:42;;;;;;;;;;;;;;;13.89;100.00;99768.53;5095655;28;19912;-34
2021/11/07 13:09:08;;;;;;;;;;;;;;;13.87;100.00;99765.31;5095936;28;19919;-33
2021/11/07 13:11:37;;;;;;;;;;;;;;;13.91;100.00;99771.78;5095618;28;20006;-34
2021/11/07 13:14:51;;;;;;;;;;;;;;;14.05;100.00;99788.13;5095432;28;20310;-34